createdAt,value
2022-12-19T00:04:05.478Z,0.22
2022-12-19T00:08:18.034Z,0.24
2022-12-19T00:12:19.959Z,0.29
2022-12-19T00:16:27.945Z,0.36
2022-12-19T00:20:29.749Z,0.39
2022-12-19T00:24:31.536Z,0.44
2022-12-19T00:28:33.387Z,0.48
2022-12-19T00:32:35.242Z,0.54
2022-12-19T00:36:37.142Z,0.58
2022-12-19T00:40:38.873Z,0.60
2022-12-19T00:44:42.122Z,0.63
2022-12-19T00:48:43.969Z,0.65
2022-12-19T00:52:45.662Z,0.70
2022-12-19T00:56:47.386Z,0.75
2022-12-19T01:00:49.373Z,0.79
2022-12-19T01:04:51.181Z,0.83
2022-12-19T01:08:52.913Z,0.89
2022-12-19T01:12:58.200Z,0.93
2022-12-19T01:16:59.910Z,0.99
2022-12-19T01:21:04.709Z,1.05
2022-12-19T01:25:08.803Z,1.08
2022-12-19T01:29:13.788Z,1.14
2022-12-19T01:33:17.625Z,1.18
2022-12-19T01:37:19.876Z,1.22
2022-12-19T01:41:21.632Z,1.26
2022-12-19T01:45:34.469Z,1.29
2022-12-19T01:49:37.773Z,1.32
2022-12-19T01:53:48.724Z,1.37
2022-12-19T01:57:52.602Z,1.41
2022-12-19T02:02:00.497Z,1.44
2022-12-19T02:06:04.642Z,1.45
2022-12-19T02:10:06.732Z,1.49
2022-12-19T02:14:10.626Z,1.52
2022-12-19T02:18:24.374Z,1.55
2022-12-19T02:22:54.263Z,1.58
2022-12-19T02:27:21.770Z,1.61
2022-12-19T02:31:31.556Z,1.64
2022-12-19T02:35:51.805Z,1.66
2022-12-19T02:40:02.512Z,1.69
2022-12-19T02:44:05.550Z,1.73
2022-12-19T02:48:09.389Z,1.76
2022-12-19T02:52:32.791Z,1.79
2022-12-19T02:56:49.875Z,1.83
2022-12-19T03:01:04.447Z,1.88
2022-12-19T03:05:31.515Z,1.93
2022-12-19T03:09:41.417Z,1.95
2022-12-19T03:13:49.966Z,2.00
2022-12-19T03:17:52.610Z,2.05
2022-12-19T03:21:54.354Z,2.10
2022-12-19T03:26:00.485Z,2.17
2022-12-19T03:30:07.605Z,2.19
2022-12-19T03:34:22.080Z,2.22
2022-12-19T03:38:25.343Z,2.26
2022-12-19T03:42:48.810Z,2.30
2022-12-19T03:46:59.315Z,2.37
2022-12-19T03:51:47.588Z,2.39
2022-12-19T03:56:00.278Z,2.48
2022-12-19T04:00:08.375Z,2.49
2022-12-19T04:04:17.172Z,2.53
2022-12-19T04:08:19.298Z,2.56
2022-12-19T04:12:28.086Z,2.59
2022-12-19T04:16:51.919Z,2.65
2022-12-19T04:21:08.852Z,2.70
2022-12-19T04:25:14.155Z,2.75
2022-12-19T04:29:18.278Z,2.84
2022-12-19T04:33:20.334Z,2.86
2022-12-19T04:37:22.075Z,2.92
2022-12-19T04:41:23.924Z,3.02
2022-12-19T04:45:25.630Z,3.10
2022-12-19T04:49:27.323Z,3.15
2022-12-19T04:53:29.060Z,3.21
2022-12-19T04:57:31.828Z,3.29
2022-12-19T05:01:33.646Z,3.39
2022-12-19T05:05:35.420Z,3.50
2022-12-19T05:09:37.137Z,3.55
2022-12-19T05:13:38.982Z,3.61
2022-12-19T05:17:41.135Z,3.71
2022-12-19T05:21:42.867Z,3.78
2022-12-19T05:25:44.708Z,3.89
2022-12-19T05:29:46.439Z,3.98
2022-12-19T05:33:49.287Z,4.06
2022-12-19T05:37:51.440Z,4.13
2022-12-19T05:41:53.180Z,4.21
2022-12-19T05:45:54.991Z,4.25
2022-12-19T05:49:56.678Z,4.33
2022-12-19T05:54:00.650Z,4.38
2022-12-19T05:58:02.687Z,4.39
2022-12-19T06:02:04.673Z,4.40
2022-12-19T06:06:09.602Z,4.44
2022-12-19T06:10:11.306Z,4.55
2022-12-19T06:14:13.034Z,4.60
2022-12-19T06:18:14.834Z,4.67
2022-12-19T06:22:16.527Z,4.73
2022-12-19T06:26:20.603Z,4.78
2022-12-19T06:30:22.433Z,4.86
2022-12-19T06:34:54.975Z,4.89
2022-12-19T06:38:46.309Z,4.95
2022-12-19T06:42:47.995Z,4.99
2022-12-19T06:46:49.812Z,5.06
2022-12-19T06:50:51.469Z,5.10
2022-12-19T06:54:53.175Z,5.15
2022-12-19T06:58:54.916Z,5.17
2022-12-19T07:02:59.697Z,5.18
2022-12-19T07:07:01.894Z,5.22
2022-12-19T07:11:03.752Z,5.21
2022-12-19T07:15:06.234Z,5.27
2022-12-19T07:19:09.265Z,5.32
2022-12-19T07:23:18.593Z,5.35
2022-12-19T07:27:20.288Z,5.37
2022-12-19T07:31:22.111Z,5.36
2022-12-19T07:35:24.433Z,5.37
2022-12-19T07:39:26.226Z,5.40
2022-12-19T07:43:28.014Z,5.43
2022-12-19T07:47:29.909Z,5.44
2022-12-19T07:51:31.616Z,5.48
2022-12-19T07:55:33.722Z,5.50
2022-12-19T07:59:39.183Z,5.52
2022-12-19T08:03:41.312Z,5.56
2022-12-19T08:07:43.128Z,5.58
2022-12-19T08:11:44.832Z,5.62
2022-12-19T08:15:46.586Z,5.65
2022-12-19T08:19:48.361Z,5.67
2022-12-19T08:23:50.085Z,5.70
2022-12-19T08:27:51.837Z,5.74
2022-12-19T08:31:53.554Z,5.77
2022-12-19T08:35:55.280Z,5.79
2022-12-19T08:39:56.941Z,5.80
2022-12-19T08:43:58.683Z,5.82
2022-12-19T08:48:01.487Z,5.84
2022-12-19T08:52:03.251Z,5.87
2022-12-19T08:56:08.046Z,5.89
2022-12-19T09:00:10.799Z,5.90
2022-12-19T09:05:17.253Z,5.93
2022-12-19T09:08:36.131Z,5.97
2022-12-19T09:12:37.920Z,5.99
2022-12-19T09:16:39.795Z,6.01
2022-12-19T09:20:41.835Z,6.04
2022-12-19T09:24:43.556Z,6.06
2022-12-19T09:28:46.976Z,6.05
2022-12-19T09:32:48.704Z,6.07
2022-12-19T09:36:50.619Z,6.12
2022-12-19T09:40:58.501Z,6.14
2022-12-19T09:45:32.231Z,6.16
2022-12-19T09:49:41.856Z,6.15
2022-12-19T09:54:12.236Z,6.17
2022-12-19T09:58:19.992Z,6.19
2022-12-19T10:02:33.863Z,6.23
2022-12-19T10:07:22.011Z,6.28
2022-12-19T10:12:47.212Z,6.32
2022-12-19T10:16:01.060Z,6.38
2022-12-19T10:20:27.127Z,6.45
2022-12-19T10:24:40.678Z,6.50
2022-12-19T10:29:02.523Z,6.52
2022-12-19T10:33:18.728Z,6.55
2022-12-19T10:37:40.705Z,6.59
2022-12-19T10:41:45.107Z,6.63
2022-12-19T10:45:54.233Z,6.67
2022-12-19T10:49:55.964Z,6.69
2022-12-19T10:54:00.316Z,6.68
2022-12-19T10:58:31.806Z,6.67
2022-12-19T11:02:39.779Z,6.70
2022-12-19T11:07:03.665Z,6.70
2022-12-19T11:12:32.575Z,6.73
2022-12-19T11:19:31.131Z,6.75
2022-12-19T11:29:25.674Z,6.79
2022-12-19T11:30:09.926Z,6.83
2022-12-19T11:30:25.739Z,6.90
2022-12-19T11:33:14.055Z,6.93
2022-12-19T11:37:26.054Z,6.96
2022-12-19T11:41:39.952Z,6.98
2022-12-19T11:46:21.711Z,6.99
2022-12-19T11:50:30.848Z,7.01
2022-12-19T11:54:43.750Z,7.02
2022-12-19T11:58:55.961Z,7.03
2022-12-19T12:02:57.702Z,7.04
2022-12-19T12:07:00.321Z,7.04
2022-12-19T12:15:11.284Z,7.03
2022-12-19T12:27:57.930Z,7.01
2022-12-19T12:31:31.782Z,7.02
2022-12-19T12:31:51.154Z,7.01
2022-12-19T12:31:58.646Z,7.05
2022-12-19T12:35:46.569Z,7.10
2022-12-19T12:39:05.304Z,7.11
2022-12-19T12:43:16.347Z,7.15
2022-12-19T12:47:22.047Z,7.18
2022-12-19T12:51:25.196Z,7.20
2022-12-19T12:55:31.449Z,7.23
2022-12-19T12:59:33.295Z,7.27
2022-12-19T13:03:35.301Z,7.28
2022-12-19T13:07:52.238Z,7.29
2022-12-19T13:12:38.557Z,7.32
2022-12-19T13:16:43.308Z,7.35
2022-12-19T13:20:48.158Z,7.39
2022-12-19T13:24:51.289Z,7.40
2022-12-19T13:28:53.106Z,7.42
2022-12-19T13:32:54.837Z,7.47
2022-12-19T13:39:54.400Z,7.49
2022-12-19T13:42:02.636Z,7.53
2022-12-19T13:46:23.904Z,7.52
2022-12-19T13:50:48.221Z,7.57
2022-12-19T13:54:59.296Z,7.58
2022-12-19T13:59:04.789Z,7.57
2022-12-19T14:03:16.366Z,7.59
2022-12-19T14:07:40.395Z,7.61
2022-12-19T14:13:47.463Z,7.63
2022-12-19T14:16:06.750Z,7.66
2022-12-19T14:22:01.715Z,7.69
2022-12-19T14:24:41.684Z,7.71
2022-12-19T14:29:04.709Z,7.71
2022-12-19T14:33:40.289Z,7.70
2022-12-19T14:39:19.882Z,7.69
2022-12-19T14:43:56.139Z,7.69
2022-12-19T14:52:51.738Z,7.66
2022-12-19T14:54:34.717Z,7.62
2022-12-19T15:01:09.493Z,7.61
2022-12-19T15:05:15.122Z,7.61
2022-12-19T15:11:09.294Z,7.61
2022-12-19T15:14:53.359Z,7.60
2022-12-19T15:18:16.238Z,7.61
2022-12-19T15:22:19.312Z,7.63
2022-12-19T15:26:35.095Z,7.64
2022-12-19T15:30:38.397Z,7.65
2022-12-19T15:34:50.633Z,7.65
2022-12-19T15:38:53.290Z,7.67
2022-12-19T15:42:57.612Z,7.67
2022-12-19T15:47:05.031Z,7.61
2022-12-19T15:51:13.580Z,7.56
2022-12-19T15:55:17.566Z,7.56
2022-12-19T15:59:37.164Z,7.60
2022-12-19T16:03:39.717Z,7.62
2022-12-19T16:07:41.936Z,7.63
2022-12-19T16:11:44.480Z,7.65
2022-12-19T16:15:46.962Z,7.68
2022-12-19T16:19:49.472Z,7.70
2022-12-19T16:23:52.331Z,7.69
2022-12-19T16:27:57.566Z,7.67
2022-12-19T16:32:01.835Z,7.68
2022-12-19T16:36:05.749Z,7.68
2022-12-19T16:40:20.558Z,7.68
2022-12-19T16:44:23.507Z,7.64
2022-12-19T16:48:27.592Z,7.60
2022-12-19T16:52:29.319Z,7.60
2022-12-19T16:56:48.046Z,7.58
2022-12-19T17:00:51.257Z,7.52
2022-12-19T17:04:54.264Z,7.50
2022-12-19T17:08:56.108Z,7.49
2022-12-19T17:12:59.205Z,7.47
2022-12-19T17:17:01.390Z,7.45
2022-12-19T17:21:03.601Z,7.44
2022-12-19T17:25:16.526Z,7.41
2022-12-19T17:29:18.843Z,7.37
2022-12-19T17:33:23.904Z,7.34
2022-12-19T17:37:25.745Z,7.32
2022-12-19T17:41:27.632Z,7.32
2022-12-19T17:45:31.443Z,7.32
2022-12-19T17:49:33.635Z,7.32
2022-12-19T17:53:36.037Z,7.34
2022-12-19T17:57:37.716Z,7.36
2022-12-19T18:01:43.927Z,7.38
2022-12-19T18:05:45.874Z,7.43
2022-12-19T18:09:48.660Z,7.43
2022-12-19T18:13:50.878Z,7.41
2022-12-19T18:17:54.097Z,7.41
2022-12-19T18:21:56.246Z,7.39
2022-12-19T18:26:01.806Z,7.40
2022-12-19T18:30:05.051Z,7.40
2022-12-19T18:34:08.216Z,7.42
2022-12-19T18:38:19.500Z,7.44
2022-12-19T18:42:21.987Z,7.44
2022-12-19T18:46:27.563Z,7.42
2022-12-19T18:50:29.791Z,7.43
2022-12-19T18:54:31.537Z,7.45
2022-12-19T18:58:34.134Z,7.45
2022-12-19T19:02:36.436Z,7.45
2022-12-19T19:06:38.509Z,7.45
2022-12-19T19:10:40.476Z,7.47
2022-12-19T19:14:45.840Z,7.53
2022-12-19T19:18:52.089Z,7.57
2022-12-19T19:22:53.981Z,7.67
2022-12-19T19:26:55.803Z,7.76
2022-12-19T19:31:00.081Z,7.83
2022-12-19T19:35:02.852Z,7.88
2022-12-19T19:39:04.996Z,7.94
2022-12-19T19:43:07.173Z,7.95
2022-12-19T19:47:08.947Z,7.98
2022-12-19T19:51:12.146Z,8.00
2022-12-19T19:55:16.812Z,8.02
2022-12-19T19:59:18.798Z,8.02
2022-12-19T20:03:23.316Z,8.04
2022-12-19T20:07:25.610Z,8.02
2022-12-19T20:11:27.383Z,8.02
2022-12-19T20:15:29.656Z,8.04
2022-12-19T20:19:31.457Z,8.02
2022-12-19T20:23:33.175Z,8.01
2022-12-19T20:27:34.911Z,8.00
2022-12-19T20:31:36.722Z,7.97
2022-12-19T20:35:38.466Z,7.97
2022-12-19T20:39:40.242Z,7.98
2022-12-19T20:43:42.761Z,8.00
2022-12-19T20:47:44.453Z,8.00
2022-12-19T20:51:47.854Z,8.01
2022-12-19T20:55:57.831Z,8.02
2022-12-19T21:00:00.316Z,8.06
2022-12-19T21:04:02.168Z,8.09
2022-12-19T21:08:04.110Z,8.09
2022-12-19T21:12:05.988Z,8.10
2022-12-19T21:16:10.040Z,8.13
2022-12-19T21:20:12.216Z,8.17
2022-12-19T21:24:13.918Z,8.22
2022-12-19T21:28:19.062Z,8.25
2022-12-19T21:32:20.836Z,8.27
2022-12-19T21:36:23.910Z,8.26
2022-12-19T21:40:25.737Z,8.31
2022-12-19T21:44:27.564Z,8.32
2022-12-19T21:48:29.295Z,8.32
2022-12-19T21:52:30.983Z,8.30
2022-12-19T21:56:36.853Z,8.30
2022-12-19T22:00:38.573Z,8.26
2022-12-19T22:04:40.365Z,8.24
2022-12-19T22:08:42.255Z,8.22
2022-12-19T22:12:43.916Z,8.21
2022-12-19T22:16:45.913Z,8.20
2022-12-19T22:20:47.704Z,8.21
2022-12-19T22:24:49.412Z,8.22
2022-12-19T22:28:54.206Z,8.23
2022-12-19T22:32:55.938Z,8.22
2022-12-19T22:36:57.710Z,8.22
2022-12-19T22:41:04.835Z,8.23
2022-12-19T22:45:07.203Z,8.23
2022-12-19T22:49:13.992Z,8.25
2022-12-19T22:53:15.818Z,8.23
2022-12-19T22:57:17.558Z,8.23
2022-12-19T23:01:21.953Z,8.24
2022-12-19T23:05:24.427Z,8.24
2022-12-19T23:09:26.241Z,8.22
2022-12-19T23:13:27.954Z,8.23
2022-12-19T23:17:30.074Z,8.22
2022-12-19T23:21:31.992Z,8.23
2022-12-19T23:25:42.133Z,8.24
2022-12-19T23:29:43.944Z,8.26
2022-12-19T23:33:45.727Z,8.29
2022-12-19T23:37:47.433Z,8.31
2022-12-19T23:41:49.108Z,8.32
2022-12-19T23:45:51.059Z,8.33
2022-12-19T23:49:52.903Z,8.34
2022-12-19T23:53:55.899Z,8.36
2022-12-19T23:57:57.588Z,8.37
